Time;durP1;ratioP1;P1;durP2;ratioP2;P2;SDS_P1;SDS_P2;PMS_P1;PMS_P2;Temp;Humidity;BMP_temperature;BMP_pressure;BME280_temperature;BME280_humidity;BME280_pressure;Samples;Min_cycle;Max_cycle;Signal;HPM_P1;HPM_P2
2021/12/26 00:01:51;;;;;;;9.60;6.07;;;;;;;2.97;100.00;94773.28;5033264;28;24521;-71
2021/12/26 00:04:17;;;;;;;9.63;6.72;;;;;;;2.84;100.00;94770.50;5033113;28;24482;-71
2021/12/26 00:06:45;;;;;;;8.02;6.43;;;;;;;2.82;100.00;94770.56;5032579;28;24984;-70
2021/12/26 00:09:11;;;;;;;8.13;6.30;;;;;;;2.75;100.00;94769.22;5032909;28;24530;-71
2021/12/26 00:11:38;;;;;;;7.65;5.88;;;;;;;2.82;100.00;94773.13;5032883;28;24412;-70
2021/12/26 00:14:06;;;;;;;13.02;7.00;;;;;;;2.78;100.00;94758.00;5032998;28;24424;-70
2021/12/26 00:16:34;;;;;;;13.52;7.30;;;;;;;2.80;100.00;94763.88;5032676;28;24514;-70
2021/12/26 00:19:00;;;;;;;9.52;7.05;;;;;;;2.81;100.00;94766.34;5032760;28;24424;-70
2021/12/26 00:21:27;;;;;;;26.40;6.93;;;;;;;2.75;100.00;94758.16;5032464;28;25173;-71
2021/12/26 00:23:55;;;;;;;9.82;7.40;;;;;;;2.82;100.00;94765.47;5032199;28;24438;-70
2021/12/26 00:26:21;;;;;;;10.25;6.88;;;;;;;2.89;100.00;94768.53;5032756;28;24514;-70
2021/12/26 00:28:48;;;;;;;13.23;10.20;;;;;;;3.01;100.00;94762.00;5032657;28;24811;-70
2021/12/26 00:31:17;;;;;;;10.20;6.80;;;;;;;2.94;100.00;94764.03;5032436;28;25023;-71
2021/12/26 00:33:44;;;;;;;14.65;8.27;;;;;;;3.28;100.00;94764.91;5032384;28;24416;-70
2021/12/26 00:36:10;;;;;;;8.40;7.23;;;;;;;3.14;100.00;94763.03;5032075;28;24833;-70
2021/12/26 00:38:37;;;;;;;9.47;8.47;;;;;;;3.01;100.00;94765.38;5032250;28;24497;-70
2021/12/26 00:41:04;;;;;;;10.00;7.80;;;;;;;3.06;100.00;94767.72;5032463;28;24435;-71
2021/12/26 00:43:30;;;;;;;10.50;6.32;;;;;;;3.29;100.00;94769.13;5032333;28;24423;-71
2021/12/26 00:45:57;;;;;;;11.23;6.40;;;;;;;3.37;100.00;94767.00;5031982;28;24435;-70
2021/12/26 00:48:24;;;;;;;11.50;6.60;;;;;;;3.11;100.00;94770.84;5032254;28;24415;-71
2021/12/26 00:50:51;;;;;;;9.65;7.13;;;;;;;3.14;100.00;94766.41;5031970;28;24447;-70
2021/12/26 00:53:17;;;;;;;10.70;7.43;;;;;;;2.95;100.00;94763.13;5031935;28;24485;-71
2021/12/26 00:55:44;;;;;;;14.07;7.60;;;;;;;3.03;100.00;94763.56;5031846;28;24420;-70
2021/12/26 00:58:11;;;;;;;22.55;8.20;;;;;;;3.04;100.00;94762.69;5032040;28;24916;-71
2021/12/26 01:00:42;;;;;;;9.80;7.45;;;;;;;2.91;100.00;94759.06;5031953;28;24419;-71
2021/12/26 01:03:11;;;;;;;11.80;6.85;;;;;;;3.09;100.00;94762.44;5031865;28;24420;-70
2021/12/26 01:05:43;;;;;;;9.10;7.43;;;;;;;2.91;100.00;94752.22;5031408;28;24833;-70
2021/12/26 01:08:14;;;;;;;16.77;7.55;;;;;;;3.20;100.00;94756.81;5026604;28;24494;-71
2021/12/26 01:10:45;;;;;;;13.35;7.65;;;;;;;3.23;100.00;94754.91;5023444;28;25264;-70
2021/12/26 01:13:21;;;;;;;15.02;7.63;;;;;;;2.96;100.00;94757.09;5031510;28;24975;-71
2021/12/26 01:15:49;;;;;;;9.07;6.40;;;;;;;2.84;100.00;94755.16;5031241;28;24436;-72
2021/12/26 01:18:16;;;;;;;9.77;6.97;;;;;;;2.70;100.00;94749.88;5031394;28;24479;-72
2021/12/26 01:20:50;;;;;;;10.02;6.95;;;;;;;2.66;100.00;94754.31;5031628;28;24426;-71
2021/12/26 01:23:20;;;;;;;12.40;6.03;;;;;;;2.56;100.00;94753.09;5031282;28;24431;-71
2021/12/26 01:25:47;;;;;;;8.40;7.22;;;;;;;2.66;100.00;94751.75;5031199;28;24485;-72
2021/12/26 01:28:14;;;;;;;8.60;6.85;;;;;;;2.74;100.00;94752.19;5031469;28;24423;-72
2021/12/26 01:30:41;;;;;;;17.35;7.07;;;;;;;2.91;100.00;94756.50;5031152;28;24447;-72
2021/12/26 01:33:10;;;;;;;13.63;6.65;;;;;;;2.95;100.00;94752.06;5031433;28;24509;-72
2021/12/26 01:35:37;;;;;;;17.02;6.65;;;;;;;2.90;100.00;94765.09;5031147;28;24458;-72
2021/12/26 01:38:06;;;;;;;9.88;7.25;;;;;;;2.78;100.00;94756.28;5031252;28;24427;-71
2021/12/26 01:40:36;;;;;;;13.40;7.05;;;;;;;2.59;100.00;94765.72;5031224;28;24444;-71
2021/12/26 01:43:03;;;;;;;13.55;6.35;;;;;;;2.52;100.00;94769.47;5031010;28;24431;-72
2021/12/26 01:45:30;;;;;;;11.07;6.05;;;;;;;2.47;100.00;94763.75;5030711;28;24515;-71
2021/12/26 01:47:58;;;;;;;9.82;7.00;;;;;;;2.53;100.00;94766.03;5031114;28;24424;-71
2021/12/26 01:50:25;;;;;;;11.40;6.68;;;;;;;2.60;100.00;94765.66;5030849;28;24861;-71
2021/12/26 01:52:51;;;;;;;9.32;6.60;;;;;;;2.59;100.00;94770.84;5030981;28;24439;-72
2021/12/26 01:55:25;;;;;;;17.00;6.85;;;;;;;2.53;100.00;94776.25;5030622;28;24443;-71
2021/12/26 01:57:54;;;;;;;21.35;6.38;;;;;;;2.36;100.00;94782.16;5030909;28;24474;-71
2021/12/26 02:00:21;;;;;;;13.77;6.25;;;;;;;2.39;100.00;94782.00;5031105;28;24423;-72
2021/12/26 02:02:48;;;;;;;9.52;6.50;;;;;;;2.42;100.00;94777.59;5030821;28;24999;-71
2021/12/26 02:05:16;;;;;;;14.20;6.43;;;;;;;2.49;100.00;94778.13;5030547;28;24419;-72
2021/12/26 02:07:42;;;;;;;9.32;6.72;;;;;;;2.51;100.00;94773.75;5030417;28;24763;-70
2021/12/26 02:10:09;;;;;;;23.58;6.95;;;;;;;2.46;100.00;94770.59;5030471;28;24451;-71
2021/12/26 02:12:37;;;;;;;20.23;6.57;;;;;;;2.47;100.00;94769.69;5030835;28;24478;-72
2021/12/26 02:15:04;;;;;;;7.38;6.40;;;;;;;2.49;100.00;94767.09;5030769;28;24412;-72
2021/12/26 02:17:31;;;;;;;16.42;6.38;;;;;;;2.61;100.00;94762.19;5030578;28;24427;-72
2021/12/26 02:20:20;;;;;;;16.58;6.05;;;;;;;2.74;100.00;94764.97;5030622;28;24419;-72
2021/12/26 02:22:52;;;;;;;12.63;6.25;;;;;;;2.82;100.00;94767.19;5030314;28;24431;-71
2021/12/26 02:27:30;;;;;;;19.98;6.32;;;;;;;2.99;100.00;94766.34;5030423;28;24430;-70
2021/12/26 02:28:17;;;;;;;13.90;6.35;;;;;;;2.85;100.00;94772.13;5030335;28;25049;-72
2021/12/26 02:30:45;;;;;;;10.30;6.38;;;;;;;2.99;100.00;94766.34;5030270;28;25007;-71
2021/12/26 02:33:12;;;;;;;21.77;6.60;;;;;;;3.00;100.00;94771.38;5030194;28;24993;-71
2021/12/26 02:35:40;;;;;;;13.77;7.50;;;;;;;2.76;100.00;94772.59;5030298;28;24520;-72
2021/12/26 02:38:08;;;;;;;11.88;7.63;;;;;;;2.71;100.00;94769.41;5030527;28;24424;-71
2021/12/26 02:40:34;;;;;;;22.27;7.30;;;;;;;2.73;100.00;94775.28;5030530;28;24462;-72
2021/12/26 02:43:01;;;;;;;12.57;7.25;;;;;;;2.67;100.00;94772.16;5030409;28;24430;-71
2021/12/26 02:45:28;;;;;;;11.80;7.50;;;;;;;2.73;100.00;94765.06;5029940;28;24422;-72
2021/12/26 02:47:54;;;;;;;6.65;6.05;;;;;;;2.78;100.00;94773.34;5030448;28;24427;-71
2021/12/26 02:50:23;;;;;;;10.85;6.28;;;;;;;3.01;100.00;94770.50;5030370;28;24533;-70
2021/12/26 02:52:52;;;;;;;12.55;6.80;;;;;;;2.91;100.00;94771.84;5030413;28;24431;-71
2021/12/26 02:55:21;;;;;;;10.10;6.77;;;;;;;2.81;100.00;94768.91;5030121;28;24412;-71
2021/12/26 02:57:48;;;;;;;14.13;6.75;;;;;;;2.91;100.00;94772.69;5030215;28;24933;-71
2021/12/26 03:00:17;;;;;;;10.27;6.25;;;;;;;2.76;100.00;94768.31;5030155;28;24463;-70
2021/12/26 03:02:46;;;;;;;11.70;6.25;;;;;;;2.73;100.00;94770.19;5030273;28;24430;-70
2021/12/26 03:05:14;;;;;;;7.22;6.20;;;;;;;2.76;100.00;94773.41;5030276;28;24424;-71
2021/12/26 03:07:41;;;;;;;6.30;5.70;;;;;;;2.86;100.00;94768.69;5030240;28;24777;-71
2021/12/26 03:10:17;;;;;;;12.48;6.65;;;;;;;2.91;100.00;94774.41;5029910;28;24981;-71
2021/12/26 03:12:43;;;;;;;7.32;6.57;;;;;;;2.87;100.00;94762.69;5029991;28;24420;-71
2021/12/26 03:15:11;;;;;;;10.98;7.10;;;;;;;2.85;100.00;94769.56;5030250;28;24416;-71
2021/12/26 03:17:37;;;;;;;8.23;6.90;;;;;;;2.83;100.00;94772.22;5030001;28;24515;-71
2021/12/26 03:20:08;;;;;;;9.35;6.60;;;;;;;2.84;100.00;94773.88;5033871;28;24415;-71
2021/12/26 03:22:34;;;;;;;9.23;6.95;;;;;;;2.75;100.00;94776.06;5033565;28;24435;-70
2021/12/26 03:25:01;;;;;;;11.80;7.40;;;;;;;2.90;100.00;94772.75;5034084;28;24423;-72
2021/12/26 03:27:28;;;;;;;16.25;8.02;;;;;;;2.85;100.00;94765.28;5033437;28;24473;-72
2021/12/26 03:29:55;;;;;;;11.07;7.80;;;;;;;2.76;100.00;94767.47;5033703;28;24841;-72
2021/12/26 03:32:23;;;;;;;13.63;8.55;;;;;;;2.75;100.00;94768.41;5033596;28;24416;-71
2021/12/26 03:34:51;;;;;;;14.77;8.35;;;;;;;2.85;100.00;94767.03;5033561;28;24436;-71
2021/12/26 03:37:18;;;;;;;13.80;9.95;;;;;;;2.97;100.00;94776.69;5033378;28;24427;-72
2021/12/26 03:39:44;;;;;;;18.48;10.23;;;;;;;2.82;100.00;94769.75;5033406;28;24805;-72
2021/12/26 03:42:13;;;;;;;11.27;9.57;;;;;;;2.75;100.00;94776.06;5033547;28;24424;-71
2021/12/26 03:44:41;;;;;;;11.45;10.25;;;;;;;2.72;100.00;94771.09;5033487;28;24528;-71
2021/12/26 03:47:08;;;;;;;14.35;9.80;;;;;;;2.96;100.00;94772.44;5033169;28;24466;-71
2021/12/26 03:49:35;;;;;;;16.25;9.98;;;;;;;3.08;100.00;94771.88;5033240;28;24423;-72
2021/12/26 03:52:01;;;;;;;15.45;10.27;;;;;;;2.86;100.00;94766.16;5033320;28;24477;-71
2021/12/26 03:54:27;;;;;;;14.88;10.90;;;;;;;2.93;100.00;94767.50;5033023;28;24762;-71
2021/12/26 03:56:54;;;;;;;21.90;12.18;;;;;;;2.95;100.00;94765.69;5033047;28;24439;-72
2021/12/26 03:59:20;;;;;;;21.40;11.45;;;;;;;2.99;100.00;94771.47;5033026;28;24949;-72
2021/12/26 04:01:48;;;;;;;19.42;11.23;;;;;;;2.80;100.00;94772.38;5033105;28;24478;-72
2021/12/26 04:04:15;;;;;;;14.70;10.03;;;;;;;2.95;100.00;94772.53;5033050;28;24513;-72
2021/12/26 04:06:41;;;;;;;17.75;10.80;;;;;;;2.80;100.00;94772.38;5032725;28;25062;-72
2021/12/26 04:09:08;;;;;;;15.40;10.95;;;;;;;2.76;100.00;94777.72;5032732;28;24435;-71
2021/12/26 04:11:38;;;;;;;18.65;9.80;;;;;;;2.81;100.00;94779.13;5032961;28;24446;-72
2021/12/26 04:14:05;;;;;;;16.88;11.15;;;;;;;2.84;100.00;94767.94;5032917;28;24525;-71
2021/12/26 04:16:31;;;;;;;11.30;9.68;;;;;;;2.85;100.00;94775.53;5032584;28;24423;-72
2021/12/26 04:18:59;;;;;;;17.88;10.13;;;;;;;2.90;100.00;94777.88;5032811;28;24423;-71
2021/12/26 04:21:25;;;;;;;13.90;9.35;;;;;;;2.95;100.00;94775.91;5032636;28;24423;-72
2021/12/26 04:23:52;;;;;;;15.88;9.50;;;;;;;2.96;100.00;94772.44;5032467;28;25023;-71
2021/12/26 04:26:19;;;;;;;13.45;9.98;;;;;;;3.25;100.00;94767.63;5032535;28;24419;-71
2021/12/26 04:28:45;;;;;;;16.10;10.57;;;;;;;3.33;100.00;94768.88;5032123;28;24430;-71
2021/12/26 04:31:12;;;;;;;17.37;10.57;;;;;;;3.27;100.00;94764.09;5032404;28;24833;-70
2021/12/26 04:33:38;;;;;;;15.27;11.77;;;;;;;3.13;100.00;94775.00;5032405;28;24560;-71
2021/12/26 04:36:07;;;;;;;16.00;12.82;;;;;;;2.94;100.00;94771.72;5032053;28;24790;-71
2021/12/26 04:38:33;;;;;;;16.90;10.90;;;;;;;2.92;100.00;94774.31;5032517;28;24419;-72
2021/12/26 04:41:00;;;;;;;15.52;11.73;;;;;;;2.86;100.00;94763.59;5032483;28;24490;-71
2021/12/26 04:43:27;;;;;;;17.20;12.55;;;;;;;2.78;100.00;94768.22;5032319;28;24423;-71
2021/12/26 04:45:54;;;;;;;21.45;12.20;;;;;;;2.70;100.00;94767.78;5031888;28;24934;-72
2021/12/26 04:48:20;;;;;;;14.48;12.38;;;;;;;2.68;100.00;94770.41;5032186;28;24423;-71
2021/12/26 04:50:47;;;;;;;19.05;12.40;;;;;;;2.69;100.00;94774.63;5031942;28;24443;-71
2021/12/26 04:53:15;;;;;;;18.83;12.45;;;;;;;2.75;100.00;94765.84;5032252;28;24427;-71
2021/12/26 04:55:42;;;;;;;14.90;12.00;;;;;;;2.70;100.00;94768.59;5031929;28;24465;-72
2021/12/26 04:58:08;;;;;;;16.58;11.77;;;;;;;2.74;100.00;94776.94;5032064;28;24474;-71
2021/12/26 05:00:35;;;;;;;15.48;12.52;;;;;;;2.75;100.00;94768.41;5032055;28;24418;-72
2021/12/26 05:03:04;;;;;;;16.75;12.55;;;;;;;2.69;100.00;94773.78;5031845;28;24828;-71
2021/12/26 05:05:31;;;;;;;14.23;10.57;;;;;;;2.74;100.00;94774.38;5031578;28;25117;-72
2021/12/26 05:07:58;;;;;;;17.15;11.43;;;;;;;2.91;100.00;94777.78;5032062;28;24423;-72
2021/12/26 05:10:28;;;;;;;14.55;11.63;;;;;;;2.88;100.00;94770.25;5031808;28;24446;-71
2021/12/26 05:12:56;;;;;;;16.67;10.98;;;;;;;2.92;100.00;94778.63;5031626;28;24954;-71
2021/12/26 05:15:22;;;;;;;14.93;11.57;;;;;;;2.99;100.00;94771.47;5031410;28;24553;-71
2021/12/26 05:17:50;;;;;;;13.20;10.30;;;;;;;3.04;100.00;94770.38;5031498;28;24957;-71
2021/12/26 05:20:19;;;;;;;13.30;11.43;;;;;;;2.95;100.00;94772.53;5031835;28;24412;-72
2021/12/26 05:22:46;;;;;;;17.17;11.30;;;;;;;2.87;100.00;94776.28;5031437;28;24526;-71
2021/12/26 05:25:13;;;;;;;14.85;11.00;;;;;;;2.86;100.00;94776.38;5031435;28;24829;-69
2021/12/26 05:27:41;;;;;;;13.93;10.20;;;;;;;2.88;100.00;94772.00;5031456;28;24422;-70
2021/12/26 05:30:12;;;;;;;15.43;10.88;;;;;;;2.89;100.00;94776.19;5031205;28;24419;-70
2021/12/26 05:32:38;;;;;;;16.93;12.30;;;;;;;2.86;100.00;94776.38;5031430;28;24502;-71
2021/12/26 05:35:05;;;;;;;17.98;12.07;;;;;;;2.90;100.00;94773.59;5031375;28;24490;-70
2021/12/26 05:37:32;;;;;;;17.23;10.48;;;;;;;2.92;100.00;94776.88;5031151;28;24493;-70
2021/12/26 05:40:00;;;;;;;12.45;9.98;;;;;;;2.95;100.00;94775.91;5031213;28;24466;-71
2021/12/26 05:42:27;;;;;;;13.10;9.97;;;;;;;2.92;100.00;94771.75;5030563;28;24485;-70
2021/12/26 05:44:55;;;;;;;12.60;10.32;;;;;;;2.90;100.00;94772.75;5030846;28;24424;-70
2021/12/26 05:47:21;;;;;;;18.10;10.13;;;;;;;2.86;100.00;94766.16;5030973;28;24485;-71
2021/12/26 05:49:48;;;;;;;16.88;10.18;;;;;;;2.87;100.00;94770.34;5031221;28;24420;-72
2021/12/26 05:52:14;;;;;;;28.38;9.88;;;;;;;2.79;100.00;94765.59;5031012;28;24440;-72
2021/12/26 05:54:41;;;;;;;13.90;10.45;;;;;;;2.79;100.00;94763.06;5030852;28;24765;-71
2021/12/26 05:57:08;;;;;;;15.45;12.02;;;;;;;2.85;100.00;94770.41;5030661;28;24424;-71
2021/12/26 05:59:35;;;;;;;21.80;16.92;;;;;;;2.87;100.00;94771.16;5030980;28;24431;-71
2021/12/26 06:02:03;;;;;;;18.90;15.50;;;;;;;2.91;100.00;94767.56;5031029;28;24419;-72
2021/12/26 06:04:30;;;;;;;15.68;12.13;;;;;;;2.92;100.00;94765.81;5030869;28;24451;-71
2021/12/26 06:06:56;;;;;;;18.67;11.38;;;;;;;2.93;100.00;94767.50;5030593;28;24411;-71
2021/12/26 06:09:23;;;;;;;14.52;10.63;;;;;;;2.88;100.00;94764.31;5030749;28;24431;-71
2021/12/26 06:11:49;;;;;;;16.65;9.55;;;;;;;2.81;100.00;94770.63;5030492;28;24435;-70
2021/12/26 06:14:16;;;;;;;18.27;10.23;;;;;;;2.81;100.00;94765.53;5030016;28;24466;-70
2021/12/26 06:16:43;;;;;;;14.32;8.52;;;;;;;2.78;100.00;94761.41;5030143;28;25039;-70
2021/12/26 06:19:11;;;;;;;10.20;8.25;;;;;;;2.83;100.00;94767.13;5030617;28;24486;-70
2021/12/26 06:21:38;;;;;;;13.70;8.20;;;;;;;2.78;100.00;94763.97;5030520;28;24456;-70
2021/12/26 06:24:05;;;;;;;9.23;8.07;;;;;;;2.82;100.00;94768.03;5030050;28;24494;-70
2021/12/26 06:26:32;;;;;;;25.73;9.35;;;;;;;2.82;100.00;94757.78;5029749;28;24428;-70
2021/12/26 06:28:58;;;;;;;11.40;9.05;;;;;;;2.85;100.00;94767.84;5023799;28;25008;-70
2021/12/26 06:31:25;;;;;;;12.13;9.25;;;;;;;2.91;100.00;94774.41;5030325;28;24521;-70
2021/12/26 06:33:52;;;;;;;10.60;8.52;;;;;;;2.96;100.00;94761.38;5030378;28;24501;-70
2021/12/26 06:36:19;;;;;;;15.43;9.43;;;;;;;2.97;100.00;94773.28;5030164;28;24420;-70
2021/12/26 06:38:47;;;;;;;9.90;8.90;;;;;;;2.98;100.00;94764.72;5030230;28;24964;-70
2021/12/26 06:41:15;;;;;;;11.77;9.38;;;;;;;2.98;100.00;94767.28;5030090;28;24794;-70
2021/12/26 06:43:42;;;;;;;13.18;8.80;;;;;;;3.00;100.00;94773.94;5030325;28;24426;-70
2021/12/26 06:46:09;;;;;;;9.77;8.00;;;;;;;3.00;100.00;94771.38;5029895;28;24460;-70
2021/12/26 06:48:38;;;;;;;9.48;8.52;;;;;;;3.02;100.00;94774.72;5030273;28;24427;-71
2021/12/26 06:51:04;;;;;;;14.25;9.00;;;;;;;2.98;100.00;94769.81;5030143;28;24466;-71
2021/12/26 06:53:32;;;;;;;11.55;8.27;;;;;;;2.92;100.00;94773.50;5033143;28;24424;-71
2021/12/26 06:55:59;;;;;;;11.05;9.02;;;;;;;2.89;100.00;94782.16;5034030;28;24428;-71
2021/12/26 06:58:25;;;;;;;10.10;8.68;;;;;;;2.90;100.00;94786.38;5034259;28;24423;-71
2021/12/26 07:00:52;;;;;;;11.23;8.77;;;;;;;2.91;100.00;94788.03;5034147;28;24427;-73
2021/12/26 07:03:19;;;;;;;11.57;8.27;;;;;;;2.92;100.00;94786.28;5033530;28;24440;-72
2021/12/26 07:05:45;;;;;;;14.07;8.68;;;;;;;2.87;100.00;94783.97;5033663;28;24435;-72
2021/12/26 07:08:12;;;;;;;11.13;8.23;;;;;;;2.95;100.00;94783.59;5033609;28;24445;-72
2021/12/26 07:10:40;;;;;;;10.80;8.15;;;;;;;2.97;100.00;94788.63;5033942;28;24497;-72
2021/12/26 07:13:07;;;;;;;10.77;7.60;;;;;;;2.99;100.00;94789.38;5033743;28;24474;-71
2021/12/26 07:15:33;;;;;;;14.35;7.63;;;;;;;3.00;100.00;94788.47;5033262;28;24798;-70
2021/12/26 07:18:00;;;;;;;9.32;7.63;;;;;;;3.01;100.00;94790.16;5033458;28;24431;-70
2021/12/26 07:20:26;;;;;;;10.75;8.20;;;;;;;3.02;100.00;94790.06;5033158;28;24455;-70
2021/12/26 07:22:53;;;;;;;8.60;7.20;;;;;;;3.06;100.00;94793.28;5032601;28;24539;-72
2021/12/26 07:25:19;;;;;;;9.10;7.22;;;;;;;2.99;100.00;94804.72;5033413;28;24416;-72
2021/12/26 07:27:47;;;;;;;7.78;6.97;;;;;;;2.91;100.00;94805.09;5033535;28;24419;-72
2021/12/26 07:30:13;;;;;;;9.25;8.07;;;;;;;2.95;100.00;94801.50;5033654;28;24547;-72
2021/12/26 07:32:40;;;;;;;12.18;8.07;;;;;;;3.01;100.00;94813.16;5033286;28;25004;-70
2021/12/26 07:35:09;;;;;;;10.23;8.18;;;;;;;3.00;100.00;94806.38;5033368;28;24423;-72
2021/12/26 07:37:35;;;;;;;12.10;7.47;;;;;;;3.01;100.00;94815.72;5034220;28;24802;-71
2021/12/26 07:40:02;;;;;;;8.98;7.07;;;;;;;3.06;100.00;94811.19;5034344;28;24485;-72
2021/12/26 07:42:29;;;;;;;7.05;6.28;;;;;;;3.04;100.00;94810.44;5044347;28;24427;-74
2021/12/26 07:44:56;;;;;;;7.75;6.80;;;;;;;3.02;100.00;94813.06;5053121;28;24602;-73
2021/12/26 07:47:23;;;;;;;9.93;6.60;;;;;;;3.07;100.00;94806.00;5053213;28;24967;-71
2021/12/26 07:49:49;;;;;;;8.00;6.40;;;;;;;3.03;100.00;94807.06;5052903;28;24421;-72
2021/12/26 07:52:20;;;;;;;7.88;7.03;;;;;;;3.07;100.00;94808.56;5053015;28;24496;-73
2021/12/26 07:54:47;;;;;;;7.63;6.47;;;;;;;3.11;100.00;94806.69;5053177;28;24496;-72
2021/12/26 07:57:14;;;;;;;10.80;8.90;;;;;;;3.08;100.00;94812.78;5052782;28;24785;-74
2021/12/26 07:59:41;;;;;;;13.77;8.27;;;;;;;3.11;100.00;94804.94;5052933;28;24785;-71
2021/12/26 08:02:09;;;;;;;12.95;8.57;;;;;;;3.12;100.00;94813.47;5053094;28;24422;-74
2021/12/26 08:04:35;;;;;;;10.75;8.25;;;;;;;3.15;100.00;94811.59;5051687;28;24419;-71
2021/12/26 08:07:02;;;;;;;10.75;8.25;;;;;;;3.15;100.00;94810.72;5050278;28;24441;-73
2021/12/26 08:09:28;;;;;;;8.15;6.97;;;;;;;3.17;100.00;94813.25;5032903;28;24423;-74
2021/12/26 08:11:55;;;;;;;10.10;8.00;;;;;;;3.21;100.00;94813.00;5032717;28;24515;-74
2021/12/26 08:14:22;;;;;;;8.07;7.00;;;;;;;3.21;100.00;94813.00;5032873;28;24420;-74
2021/12/26 08:16:49;;;;;;;11.95;7.20;;;;;;;3.25;100.00;94813.69;5051241;28;24489;-74
2021/12/26 08:19:16;;;;;;;10.02;8.00;;;;;;;3.28;100.00;94813.53;5052759;28;24427;-73
2021/12/26 08:21:43;;;;;;;10.00;7.72;;;;;;;3.28;100.00;94808.41;5052556;28;24786;-72
2021/12/26 08:24:10;;;;;;;10.60;7.78;;;;;;;3.28;100.00;94814.34;5052289;28;24427;-72
2021/12/26 08:26:36;;;;;;;10.50;7.47;;;;;;;3.29;100.00;94804.94;5052146;28;24427;-72
2021/12/26 08:29:03;;;;;;;10.20;8.15;;;;;;;3.34;100.00;94813.25;5037458;28;24432;-72
2021/12/26 08:31:30;;;;;;;11.77;8.13;;;;;;;3.31;100.00;94818.50;5032102;28;24888;-72
2021/12/26 08:33:57;;;;;;;14.57;10.63;;;;;;;3.30;100.00;94814.28;5032429;28;24491;-72
2021/12/26 08:36:25;;;;;;;21.38;12.90;;;;;;;3.30;100.00;94829.63;5032104;28;24416;-72
2021/12/26 08:38:51;;;;;;;11.27;9.52;;;;;;;3.37;100.00;94824.16;5038661;28;24431;-72
2021/12/26 08:41:17;;;;;;;11.70;10.10;;;;;;;3.29;100.00;94821.13;5029099;28;24438;-73
2021/12/26 08:43:45;;;;;;;14.60;11.20;;;;;;;3.30;100.00;94817.69;5030222;28;24467;-72
2021/12/26 08:46:12;;;;;;;15.77;10.15;;;;;;;3.40;100.00;94818.03;5031251;28;24542;-72
2021/12/26 08:48:39;;;;;;;14.48;10.85;;;;;;;3.44;100.00;94816.97;5032100;28;24790;-73
2021/12/26 08:51:05;;;;;;;11.52;8.57;;;;;;;3.43;100.00;94823.00;5032095;28;24769;-72
2021/12/26 08:53:33;;;;;;;12.57;8.60;;;;;;;3.49;100.00;94827.00;5031574;28;25034;-73
2021/12/26 08:56:03;;;;;;;11.27;7.40;;;;;;;3.57;100.00;94825.72;5030869;28;24443;-72
2021/12/26 08:58:30;;;;;;;9.23;6.37;;;;;;;3.61;100.00;94821.25;5030257;28;24536;-72
2021/12/26 09:00:57;;;;;;;11.10;7.82;;;;;;;3.66;100.00;94819.28;5031822;28;24953;-72
2021/12/26 09:03:23;;;;;;;7.20;6.07;;;;;;;3.68;100.00;94830.28;5031876;28;24432;-71
2021/12/26 09:05:50;;;;;;;8.02;6.10;;;;;;;3.71;100.00;94829.28;5031545;28;24486;-70
2021/12/26 09:08:16;;;;;;;7.30;6.38;;;;;;;3.70;100.00;94830.19;5027214;28;25023;-70
2021/12/26 09:10:44;;;;;;;11.30;6.45;;;;;;;3.69;100.00;94831.13;5040996;28;24430;-70
2021/12/26 09:13:11;;;;;;;12.93;9.48;;;;;;;3.73;100.00;94840.28;5033535;28;25059;-70
2021/12/26 09:15:38;;;;;;;27.33;15.98;;;;;;;3.77;100.00;94826.41;5031525;28;24782;-70
2021/12/26 09:18:05;;;;;;;31.10;15.27;;;;;;;3.81;100.00;94835.59;5031643;28;25024;-71
2021/12/26 09:20:32;;;;;;;33.63;18.95;;;;;;;3.84;100.00;94838.84;5031979;28;24837;-69
2021/12/26 09:22:58;;;;;;;11.80;8.15;;;;;;;3.73;100.00;94845.41;5031855;28;24438;-68
2021/12/26 09:25:25;;;;;;;8.57;6.30;;;;;;;3.78;100.00;94840.88;5031150;28;24420;-69
2021/12/26 09:27:54;;;;;;;6.50;5.00;;;;;;;3.74;100.00;94847.06;5029090;28;24519;-69
2021/12/26 09:30:21;;;;;;;5.45;4.35;;;;;;;3.83;100.00;94839.75;5028525;28;24439;-70
2021/12/26 09:32:48;;;;;;;5.22;4.55;;;;;;;3.88;100.00;94849.75;5026821;28;25047;-69
2021/12/26 09:35:15;;;;;;;6.97;5.25;;;;;;;3.89;100.00;94838.59;5031167;28;24442;-70
2021/12/26 09:37:43;;;;;;;7.38;5.00;;;;;;;3.95;100.00;94840.03;5037675;28;25009;-70
2021/12/26 09:40:11;;;;;;;5.50;4.93;;;;;;;4.00;100.00;94861.91;5019469;28;24468;-69
2021/12/26 09:42:38;;;;;;;7.22;5.40;;;;;;;4.11;100.00;94848.56;5028683;28;24775;-70
2021/12/26 09:45:08;;;;;;;7.80;6.97;;;;;;;4.06;100.00;94851.38;5025135;28;24932;-70
2021/12/26 09:47:35;;;;;;;5.80;4.78;;;;;;;4.15;100.00;94851.78;5011208;28;24454;-71
2021/12/26 09:50:02;;;;;;;6.25;5.47;;;;;;;4.23;100.00;94858.19;5015538;28;24459;-71
2021/12/26 09:52:28;;;;;;;5.20;4.70;;;;;;;4.26;100.00;94854.63;5011830;28;25077;-70
2021/12/26 09:54:55;;;;;;;6.05;4.88;;;;;;;4.33;100.00;94858.50;5030393;28;24443;-70
2021/12/26 09:57:23;;;;;;;7.15;4.55;;;;;;;4.35;100.00;94847.28;5022695;28;24440;-70
2021/12/26 09:59:49;;;;;;;6.57;4.88;;;;;;;4.40;100.00;94844.47;5022602;28;24436;-70
2021/12/26 10:02:18;;;;;;;6.38;4.95;;;;;;;4.48;100.00;94842.31;5015534;28;24842;-70
2021/12/26 10:04:45;;;;;;;10.98;8.07;;;;;;;4.44;100.00;94838.25;5018818;28;24857;-70
2021/12/26 10:07:14;;;;;;;8.93;7.05;;;;;;;4.41;100.00;94833.28;5018069;28;24527;-70
2021/12/26 10:09:45;;;;;;;8.93;7.80;;;;;;;4.43;100.00;94830.66;5018957;28;24989;-72
2021/12/26 10:12:13;;;;;;;6.57;5.93;;;;;;;4.54;100.00;94836.84;5017684;28;24527;-70
2021/12/26 10:14:41;;;;;;;7.53;5.90;;;;;;;4.61;100.00;94833.06;5017825;28;24539;-70
2021/12/26 10:17:11;;;;;;;7.45;6.72;;;;;;;4.66;100.00;94826.84;5023901;28;24448;-70
2021/12/26 10:19:43;;;;;;;6.15;5.55;;;;;;;4.76;100.00;94822.88;5021097;28;24490;-70
2021/12/26 10:22:10;;;;;;;10.25;7.30;;;;;;;4.83;100.00;94816.50;5015784;28;24460;-70
2021/12/26 10:24:39;;;;;;;8.50;6.68;;;;;;;4.81;100.00;94820.88;5025491;28;24476;-70
2021/12/26 10:27:08;;;;;;;7.95;6.55;;;;;;;4.80;100.00;94814.91;5010041;28;24440;-70
2021/12/26 10:29:38;;;;;;;7.97;6.28;;;;;;;4.77;100.00;94815.06;5018395;28;24479;-70
2021/12/26 10:32:09;;;;;;;9.65;5.85;;;;;;;4.85;100.00;94806.94;5011664;28;24452;-71
2021/12/26 10:34:41;;;;;;;7.05;6.35;;;;;;;4.86;100.00;94808.63;5012072;28;24440;-70
2021/12/26 10:37:11;;;;;;;5.70;5.10;;;;;;;4.93;100.00;94806.53;5026068;28;24440;-71
2021/12/26 10:39:41;;;;;;;9.07;6.68;;;;;;;5.01;100.00;94805.19;5022290;28;24856;-71
2021/12/26 10:42:12;;;;;;;6.47;5.63;;;;;;;5.14;100.00;94801.94;5028459;28;24439;-71
2021/12/26 10:44:41;;;;;;;7.28;5.40;;;;;;;5.21;100.00;94803.25;5029303;28;24539;-70
2021/12/26 10:47:10;;;;;;;6.25;5.57;;;;;;;5.17;100.00;94791.50;5029753;28;24446;-70
2021/12/26 10:49:49;;;;;;;6.38;5.78;;;;;;;5.28;100.00;94801.97;5022021;28;24451;-71
2021/12/26 10:52:22;;;;;;;7.93;6.65;;;;;;;5.30;100.00;94802.69;5029803;28;24451;-70
2021/12/26 10:54:54;;;;;;;10.23;7.00;;;;;;;5.31;100.00;94796.66;5010436;28;24487;-71
2021/12/26 10:57:24;;;;;;;9.23;7.13;;;;;;;5.34;100.00;94799.88;5017852;28;24435;-71
2021/12/26 11:00:05;;;;;;;7.90;6.00;;;;;;;5.36;100.00;94789.50;5023907;28;24427;-70
2021/12/26 11:02:34;;;;;;;9.43;5.93;;;;;;;5.40;100.00;94790.16;5020129;28;24444;-71
2021/12/26 11:05:07;;;;;;;6.05;4.88;;;;;;;5.46;100.00;94787.25;5023457;28;25007;-71
2021/12/26 11:07:47;;;;;;;6.40;5.33;;;;;;;5.53;100.00;94788.53;5028191;28;24464;-70
2021/12/26 11:10:16;;;;;;;6.65;5.40;;;;;;;5.45;100.00;94786.44;5017163;28;24490;-71
2021/12/26 11:12:47;;;;;;;5.55;4.53;;;;;;;5.57;100.00;94774.59;5018590;28;24462;-71
2021/12/26 11:15:16;;;;;;;5.25;4.75;;;;;;;5.65;100.00;94774.16;5010133;28;24436;-69
2021/12/26 11:17:45;;;;;;;6.40;5.47;;;;;;;5.70;100.00;94766.97;5028415;28;24439;-71
2021/12/26 11:20:23;;;;;;;5.85;4.72;;;;;;;5.74;100.00;94766.69;5025401;28;24432;-71
2021/12/26 11:22:49;;;;;;;6.95;4.85;;;;;;;5.81;100.00;94764.59;5010726;28;24443;-71
2021/12/26 11:25:16;;;;;;;4.97;4.40;;;;;;;5.84;100.00;94761.84;5010616;28;24494;-76
2021/12/26 11:27:42;;;;;;;5.88;4.95;;;;;;;5.90;100.00;94761.50;5010454;28;24981;-72
2021/12/26 11:30:10;;;;;;;5.47;4.40;;;;;;;5.90;100.00;94756.34;5012520;28;24833;-70